Latheron, United Kingdom
Current Conditions -  °F | °C
As of 10:20 AM on Sunday 26 Oct 2014 (Local Time) from EGPC Reporting Station
Broken Clouds Broken Clouds  
Wind Chill: 52°   Ceiling: 2400
Heat Index: 52°   Visibility: 6mi
Dew Point: 46°   Wind: 18mph
Humidity: 82%   Direction: 210°SSW
Pressure: 29.38"   Gusts: NA
Location:  58.29°N, 3.35°W
Report Text: EGPC 260920Z AUTO 21016KT 9999 FEW020/// BKN024/// 11/08 Q0995
Loading
Personal Weather Stations






























Interactive Weather Map New forecast layout! Learn more

10-Day Weather Forecast

Advertisements
Track Severe Weather on mobile